메인 페이지
METAR-TAF:

METAR-TAF

공항 :

피츠버그 국제공항

피츠버그, 펜실베이니아, 미국

위도: 40-30-14N, 경도: 080-15-59W, 고도: 366m

현재 날씨관측

예보는 44분 전, 09:51시(UTC)에 발표되었습니다.
동북동3kt
온도 7°C
습도 100%
기압 1018 hPa
시정: 4.8km
고도 400ft 상공 구름 보통
고도 1600ft 상공 흐림
약한비, 박무

METAR: KPIT 150951Z 06003KT 3SM -RA BR SCT004 OVC016 07/07 A3006 RMK AO2 RAB11 SLP191 SCT V BKN P0002 T00720072

시각: 05:35 (10:35 UTC)

예보

예보는 1 시간 38분 전, 08:57시(UTC)에 발표되었습니다.
예보 대상 시간: 15일 09시부터 16일 12시까지 (UTC)
동북동5kt
시정: 6.4km
고도 500ft 상공 구름 보통
고도 2000ft 상공 흐림
약한비, 박무
일시적
15일 09시부터 15일 11시까지 (UTC)
고도 500ft 상공 구름 많음
15일 1400시부터 (UTC)
동북동10kt
시정: 10km
고도 2500ft 상공 흐림
약한비
15일 2000시부터 (UTC)
북동12kt
시정: 8.0km
고도 1500ft 상공 흐림
약한비

TAF: KPIT 150857Z 1509/1612 06005KT 4SM -RA BR SCT005 OVC020 TEMPO 1509/1511 BKN005 FM151400 06010KT P6SM -RA OVC025 FM152000 05012KT 5SM -RA OVC015

4,000개 이상의 공항 관측 자료 및 예보 (METAR 및 TAF 보고).

지도상에서 검색 가능한 기상관측소가 노란 점과 빨간 점으로 표시되어 있습니다.

기상관측소 명을 보려면 표시 위로 마우스를 이동하세요.

날씨 관측과 예보를 보려면 클릭하세요.

지도 변경 : 확대하려면 엑스 표시가 있는 녹색 버튼, 축소하려면 빼기 표시가 있는 녹색 버튼, 다음 페이지의 지도를 보려면 녹색 화살표를 클릭하세요.


METAR-TAF: